Latest Weather Observations for Bega

IDN60801

Issued at 11:03 pm EST Saturday 4 July 2015 (issued every 30 minutes, with the page automatically refreshed every 10 minutes)

About weather observations | Map of weather stations | Latest weather observations for NSW | Other Formats
Station Details ID: 069139 Name: BEGA AWS Lat: -36.67 Lon: 149.82 Height: 41.0 m
Data from the previous 72 hours. | See also: Recent months at Bega
Date/Time
EST
Temp
°C
App
Temp
°C
Dew
Point
Rel
Hum
%
Delta-T
°C
Wind Press
QNH
hPa
Press
MSL
hPa
Rain
since 9 am
mm
Dir
 
Spd
km/h
Gust
km/h
Spd
kts
Gust
kts
04/11:00pm 5.0 3.7 4.3 95 0.3 CALM 0 0 0 0 - - -
04/10:30pm 5.0 3.4 4.3 95 0.3 WSW 2 6 1 3 - - 0.0
04/10:00pm 4.7 2.2 3.5 92 0.5 ENE 6 7 3 4 - - 0.0
04/09:30pm 5.6 4.2 3.8 88 0.8 CALM 0 0 0 0 - - 0.0
04/09:00pm 6.1 4.7 3.4 83 1.1 CALM 0 0 0 0 - - 0.0
04/08:30pm 7.1 5.8 4.2 82 1.3 CALM 0 0 0 0 - - 0.0
04/08:00pm 8.0 6.7 4.0 76 1.7 CALM 0 0 0 0 - - 0.0
04/07:30pm 8.5 7.2 4.3 75 1.8 CALM 0 0 0 0 - - 0.0
04/07:00pm 9.6 7.1 4.0 68 2.5 E 6 7 3 4 - - 0.0
04/06:30pm 10.0 7.6 4.2 67 2.6 N 6 7 3 4 - - 0.0
04/06:00pm 10.8 8.1 2.9 58 3.4 N 6 9 3 5 - - 0.0
04/05:30pm 11.2 8.1 3.7 60 3.3 NNW 9 13 5 7 - - 0.0
04/05:00pm 11.8 8.9 4.8 62 3.2 NNW 9 11 5 6 - - 0.0
04/04:30pm 12.2 9.9 5.8 65 3.0 NNE 7 11 4 6 - - 0.0
04/04:00pm 13.0 11.6 5.4 60 3.6 NNE 2 11 1 6 - - 0.0
04/03:30pm 13.8 12.6 4.7 54 4.2 CALM 0 0 0 0 - - 0.0
04/03:00pm 14.0 11.5 3.8 50 4.6 NNE 6 7 3 4 - - 0.0
04/02:30pm 14.2 11.4 3.4 48 4.9 NE 7 11 4 6 - - 0.0
04/02:00pm 15.6 13.8 3.4 44 5.6 N 2 7 1 4 - - 0.0
04/01:30pm 14.1 10.9 3.0 47 5.0 ENE 9 13 5 7 - - 0.0
04/01:00pm 13.9 10.3 3.1 48 4.8 NE 11 15 6 8 - - 0.0
04/12:30pm 12.8 9.9 4.5 57 3.8 ENE 9 11 5 6 - - 0.0
04/12:00pm 11.0 8.6 5.3 68 2.6 ENE 7 9 4 5 - - 0.0
04/11:30am 8.5 7.1 5.3 80 1.4 SSE 2 9 1 5 - - 0.0
04/11:00am 5.8 4.1 4.1 89 0.7 SE 2 9 1 5 - - 0.0
04/10:30am 4.0 1.1 2.8 92 0.5 SSW 7 9 4 5 - - 0.0
04/10:00am 3.9 1.6 3.0 94 0.4 E 4 6 2 3 - - 0.0
04/09:00am 0.8 -1.1 0.7 99 0.0 CALM 0 0 0 0 - - 0.0
04/08:30am 0.0 -2.0 -0.1 99 0.0 CALM 0 0 0 0 - - 0.0
04/08:00am -0.6 -3.1 -0.7 99 0.0 NNW 2 6 1 3 - - 0.0
04/07:30am -0.5 -2.6 -0.6 99 0.0 CALM 0 2 0 1 - - 0.0
04/07:00am -0.8 -2.9 -0.9 99 0.0 CALM 0 0 0 0 - - 0.0
04/06:30am -1.3 -3.5 -1.4 99 0.0 CALM 0 0 0 0 - - 0.0
04/06:00am -1.2 -3.4 -1.3 99 0.0 CALM 0 0 0 0 - - 0.0
04/05:30am -1.2 -3.4 -1.3 99 0.0 CALM 0 0 0 0 - - 0.0
04/05:00am -0.6 -2.7 -0.7 99 0.0 CALM 0 0 0 0 - - 0.0
04/04:30am -1.7 -5.3 -1.8 99 0.0 SSE 7 9 4 5 - - 0.0
04/04:00am -0.9 -3.4 -1.0 99 0.0 S 2 9 1 5 - - 0.0
04/03:30am -1.0 -4.3 -1.1 99 0.0 SSW 6 7 3 4 - - 0.0
04/03:00am -0.5 -2.6 -0.6 99 0.0 CALM 0 0 0 0 - - 0.0
04/02:30am -0.6 -2.7 -0.7 99 0.0 CALM 0 0 0 0 - - 0.0
04/02:00am -0.4 -2.5 -0.5 99 0.0 CALM 0 0 0 0 - - 0.0
04/01:30am -0.5 -2.6 -0.6 99 0.0 CALM 0 0 0 0 - - 0.0
04/01:00am -0.1 -2.1 -0.2 99 0.0 CALM 0 0 0 0 - - 0.0
04/12:30am -0.3 -2.3 -0.4 99 0.0 CALM 0 7 0 4 - - 0.0
04/12:00am -0.3 -2.3 -0.4 99 0.0 CALM 0 0 0 0 - - 0.0
 
Date/Time
EST
Temp
°C
App
Temp
°C
Dew
Point
Rel
Hum
%
Delta-T
°C
Wind Press
QNH
hPa
Press
MSL
hPa
Rain
since 9 am
mm
Dir
 
Spd
km/h
Gust
km/h
Spd
kts
Gust
kts
03/11:30pm -0.6 -3.9 -0.9 98 0.1 SSW 6 9 3 5 - - 0.0
03/11:00pm 0.6 -1.4 0.2 97 0.1 CALM 0 0 0 0 - - 0.0
03/10:30pm 1.3 -0.6 0.7 96 0.2 CALM 0 0 0 0 - - 0.0
03/10:00pm 1.4 -0.5 0.4 93 0.4 CALM 0 0 0 0 - - 0.0
03/09:30pm 2.0 0.2 1.0 93 0.4 CALM 0 0 0 0 - - 0.0
03/09:00pm 2.8 0.0 1.8 93 0.4 SW 6 9 3 5 - - 0.0
03/08:30pm 2.4 0.6 1.4 93 0.4 CALM 0 0 0 0 - - 0.0
03/08:00pm 2.5 0.7 1.0 90 0.6 CALM 0 0 0 0 - - 0.0
03/07:30pm 3.6 1.9 2.0 89 0.6 CALM 0 0 0 0 - - 0.0
03/07:00pm 4.5 2.8 1.9 83 1.0 CALM 0 0 0 0 - - 0.0
03/06:30pm 5.7 4.0 2.0 77 1.5 CALM 0 0 0 0 - - 0.0
03/06:00pm 7.2 5.5 1.7 68 2.2 CALM 0 0 0 0 - - 0.0
03/05:30pm 8.3 5.8 1.7 63 2.7 SSW 4 7 2 4 - - 0.0
03/05:00pm 9.1 5.3 2.0 61 3.0 SW 11 15 6 8 - - 0.0
03/04:30pm 10.5 7.5 2.1 56 3.6 SSW 7 9 4 5 - - 0.0
03/04:00pm 11.7 8.4 2.5 53 4.0 SSW 9 13 5 7 - - 0.0
03/03:30pm 11.6 8.2 2.1 52 4.1 SSW 9 15 5 8 - - 0.0
03/03:00pm 12.2 8.7 1.2 47 4.7 WSW 9 13 5 7 - - 0.0
03/02:30pm 12.9 8.6 1.3 45 4.9 W 13 17 7 9 - - 0.0
03/02:00pm 13.6 9.4 1.9 45 5.1 SW 13 19 7 10 - - 0.0
03/01:30pm 13.5 8.2 2.1 46 5.0 S 19 24 10 13 - - 0.0
03/01:00pm 13.0 8.1 1.7 46 4.9 SSW 17 24 9 13 - - 0.0
03/12:30pm 13.6 9.5 2.5 47 4.9 WSW 13 26 7 14 - - 0.0
03/12:00pm 12.1 7.2 1.7 49 4.4 WSW 17 26 9 14 - - 0.0
03/11:30am 11.9 6.6 1.8 50 4.3 WSW 19 26 10 14 - - 0.0
03/11:00am 11.6 7.1 2.1 52 4.1 SW 15 24 8 13 - - 0.0
03/10:30am 11.1 6.6 2.4 55 3.7 WSW 15 22 8 12 - - 0.0
03/10:00am 10.1 8.3 3.2 62 3.0 ESE 2 7 1 4 - - 0.0
03/09:30am 7.2 4.5 2.7 73 1.9 NE 6 7 3 4 - - 0.0
03/09:00am 5.5 2.7 1.8 77 1.5 NE 6 7 3 4 - - 0.4
03/08:30am 5.5 2.4 1.4 75 1.6 NNW 7 11 4 6 - - 0.4
03/08:00am 3.3 0.4 1.2 86 0.8 N 6 9 3 5 - - 0.4
03/07:30am 2.0 -0.8 -0.4 84 0.9 SSW 4 7 2 4 - - 0.4
03/07:00am 3.3 1.0 0.4 81 1.1 NW 2 6 1 3 - - 0.4
03/06:30am 3.2 0.5 0.6 83 1.0 NE 4 9 2 5 - - 0.4
03/06:00am 6.5 3.0 1.0 68 2.2 WSW 9 15 5 8 - - 0.4
03/05:30am 5.7 1.8 1.2 73 1.8 WSW 11 13 6 7 - - 0.4
03/05:00am 6.5 3.3 1.0 68 2.2 W 7 13 4 7 - - 0.4
03/04:30am 6.6 4.7 0.7 66 2.3 CALM 0 7 0 4 - - 0.4
03/04:00am 7.2 4.5 0.6 63 2.6 W 4 7 2 4 - - 0.4
03/03:30am 7.9 4.0 1.1 62 2.7 WSW 11 19 6 10 - - 0.4
03/03:00am 7.6 4.1 1.2 64 2.6 W 9 17 5 9 - - 0.4
03/02:30am 7.3 3.8 1.4 66 2.4 W 9 13 5 7 - - 0.4
03/02:00am 7.5 3.5 0.7 62 2.7 WSW 11 15 6 8 - - 0.4
03/01:30am 8.1 3.0 1.0 61 2.9 WSW 17 24 9 13 - - 0.4
03/01:00am 7.3 3.7 0.5 62 2.7 NW 9 11 5 6 - - 0.4
03/12:30am 8.3 3.6 1.0 60 3.0 WSW 15 20 8 11 - - 0.4
03/12:00am 8.5 4.6 1.0 59 3.0 SW 11 17 6 9 - - 0.4
 
Date/Time
EST
Temp
°C
App
Temp
°C
Dew
Point
Rel
Hum
%
Delta-T
°C
Wind Press
QNH
hPa
Press
MSL
hPa
Rain
since 9 am
mm
Dir
 
Spd
km/h
Gust
km/h
Spd
kts
Gust
kts
02/11:30pm 8.6 4.3 0.8 58 3.2 W 13 17 7 9 - - 0.4
02/11:00pm 8.7 3.6 0.9 58 3.2 WSW 17 26 9 14 - - 0.4
02/10:30pm 8.4 2.4 1.1 60 3.0 WSW 22 32 12 17 - - 0.4
02/10:00pm 7.6 3.3 1.0 63 2.7 WNW 13 20 7 11 - - 0.4
02/09:30pm 8.1 3.0 0.8 60 2.9 WSW 17 24 9 13 - - 0.4
02/09:00pm 8.2 3.2 1.1 61 2.9 WSW 17 24 9 13 - - 0.4
02/08:30pm 8.3 3.6 1.2 61 2.9 W 15 24 8 13 - - 0.4
02/08:00pm 8.7 3.7 1.4 60 3.0 WSW 17 24 9 13 - - 0.4
02/07:30pm 8.9 3.3 1.3 59 3.1 SW 20 32 11 17 - - 0.4
02/07:00pm 8.9 2.9 1.3 59 3.1 SW 22 35 12 19 - - 0.4
02/06:30pm 8.8 3.2 1.2 59 3.1 SW 20 30 11 16 - - 0.4
02/06:00pm 8.8 1.7 1.2 59 3.1 SW 28 39 15 21 - - 0.4
02/05:42pm 9.0 1.9 1.4 59 3.1 SW 28 46 15 25 - - 0.4
02/05:30pm 8.9 2.6 1.3 59 3.1 SW 24 41 13 22 - - 0.4
02/05:00pm 8.7 2.7 0.9 58 3.2 SW 22 33 12 18 - - 0.4
02/04:30pm 9.2 2.8 1.1 57 3.3 SW 24 44 13 24 - - 0.4
02/04:04pm 9.7 2.6 1.6 57 3.4 SW 28 52 15 28 - - 0.4
02/04:00pm 9.7 3.4 1.8 58 3.3 SW 24 46 13 25 - - 0.4
02/03:36pm 9.7 2.7 2.1 59 3.2 WSW 28 54 15 29 - - 0.4
02/03:30pm 9.2 2.3 2.5 63 2.8 WSW 28 43 15 23 - - 0.4
02/03:00pm 8.4 2.4 3.3 70 2.2 W 24 41 13 22 - - 0.4
02/02:30pm 8.7 3.8 4.3 74 1.9 WSW 19 35 10 19 - - 0.4
02/02:22pm 8.7 3.4 5.1 78 1.6 WSW 22 39 12 21 - - 0.4
02/02:00pm 8.9 0.8 5.3 78 1.6 SW 37 50 20 27 - - 0.2
02/01:56pm 9.6 1.7 4.6 71 2.2 SSW 35 54 19 29 - - 0.2
02/01:45pm 11.0 3.9 5.7 70 2.5 S 32 57 17 31 - - 0.2
02/01:30pm 12.3 8.0 7.2 71 2.5 SSE 19 32 10 17 - - 0.0
02/01:00pm 13.1 9.6 7.1 67 2.9 ESE 15 20 8 11 - - 0.0
02/12:30pm 14.1 10.9 8.5 69 2.8 ENE 15 20 8 11 - - 0.0
02/12:00pm 12.1 8.6 7.0 71 2.5 ESE 15 20 8 11 - - 0.0
02/11:30am 13.5 11.2 5.7 59 3.7 E 7 11 4 6 - - 0.0
02/11:00am 13.3 11.8 5.0 57 3.9 SSE 2 9 1 5 - - 0.0
02/10:30am 12.2 9.7 4.7 60 3.4 S 7 9 4 5 - - 0.0
02/10:00am 12.5 9.9 4.2 57 3.8 ESE 7 11 4 6 - - 0.0
02/09:30am 10.0 7.5 4.6 69 2.4 SE 7 11 4 6 - - 0.0
02/09:00am 8.8 6.8 4.2 73 2.0 NW 4 9 2 5 - - 0.0
02/08:30am 7.0 4.0 2.3 72 1.9 ENE 7 13 4 7 - - 0.0
02/08:00am 8.0 5.0 2.0 66 2.5 WNW 7 11 4 6 - - 0.0
02/07:30am 7.7 5.5 1.3 64 2.6 W 2 9 1 5 - - 0.0
02/07:00am 5.9 2.8 1.4 73 1.8 NNW 7 11 4 6 - - 0.0
02/06:30am 7.9 5.4 1.3 63 2.7 S 4 7 2 4 - - 0.0
02/06:00am 10.4 6.2 1.5 54 3.7 SW 13 17 7 9 - - 0.0
02/05:30am 11.0 5.0 1.3 51 4.1 SW 22 26 12 14 - - 0.0
02/05:00am 9.7 4.4 2.8 62 3.0 WSW 20 28 11 15 - - 0.0
02/04:51am 7.5 2.8 3.0 73 1.9 SW 17 28 9 15 - - 0.0
02/04:30am 2.1 -0.4 1.5 96 0.2 SE 4 9 2 5 - - 0.0
02/04:00am 3.0 1.1 2.9 99 0.0 WSW 2 7 1 4 - - 0.0
02/03:30am 2.4 0.8 2.3 99 0.0 CALM 0 0 0 0 - - 0.0
02/03:00am 2.6 1.0 2.5 99 0.0 CALM 0 0 0 0 - - 0.0
02/02:30am 2.4 -0.9 2.3 99 0.0 SW 9 13 5 7 - - 0.0
02/02:00am 1.6 -1.5 1.5 99 0.0 NNW 7 13 4 7 - - 0.0
02/01:30am 1.3 -1.8 1.2 99 0.0 NE 7 9 4 5 - - 0.0
02/01:00am 1.7 -1.4 1.6 99 0.0 SSW 7 9 4 5 - - 0.0
02/12:30am 1.7 -1.2 1.6 99 0.0 SSW 6 7 3 4 - - 0.0
02/12:00am 1.8 0.1 1.7 99 0.0 CALM 0 0 0 0 - - 0.0
 
Date/Time
EST
Temp
°C
App
Temp
°C
Dew
Point
Rel
Hum
%
Delta-T
°C
Wind Press
QNH
hPa
Press
MSL
hPa
Rain
since 9 am
mm
Dir
 
Spd
km/h
Gust
km/h
Spd
kts
Gust
kts
01/11:30pm 2.3 0.3 2.2 99 0.0 SSW 2 9 1 5 - - 0.0

Other Formats:

Comma delimited format used in spreadsheet applications
http://www.bom.gov.au/fwo/IDN60801/IDN60801.95931.axf

JavaScript Object Notation format (JSON) in row-major order
http://www.bom.gov.au/fwo/IDN60801/IDN60801.95931.json